Observation data for Haskell on 02/15/2017      Previous  Date  Next       Current Mesonet Observations  Soil Data  Daily Summary Page  Observations in Plain Language
KHA1 150600Z 31010KT 05/02 A3012 RMK A01 T00520024  RH  083%=      5-min Rain = 0
KHA1 150605Z 31010KT 05/02 A3013 RMK A01 T00520024  RH  084%=      5-min Rain = 0
KHA1 150610Z 31010KT 05/03 A3013 RMK A01 T00520025  RH  084%=      5-min Rain = 0
KHA1 150615Z 31010KT 05/02 A3013 RMK A01 T00510024  RH  084%=      5-min Rain = 0
KHA1 150620Z 31009KT 05/03 A3013 RMK A01 T00510025  RH  085%=      5-min Rain = 0
KHA1 150625Z 31009KT 05/03 A3013 RMK A01 T00510026  RH  085%=      5-min Rain = 0
KHA1 150630Z 31009KT 05/03 A3013 RMK A01 T00500026  RH  085%=      5-min Rain = 0
KHA1 150635Z 31009KT 05/03 A3013 RMK A01 T00500026  RH  086%=      5-min Rain = 0
KHA1 150640Z 32009KT 05/03 A3013 RMK A01 T00510025  RH  085%=      5-min Rain = 0
KHA1 150645Z 32010KT 05/02 A3013 RMK A01 T00520024  RH  083%=      5-min Rain = 0
KHA1 150650Z 32010KT 05/02 A3013 RMK A01 T00520021  RH  082%=      5-min Rain = 0
KHA1 150655Z 32011KT 05/02 A3014 RMK A01 T00510020  RH  081%=      5-min Rain = 0
KHA1 150700Z 32011KT 05/02 A3014 RMK A01 T00500019  RH  081%=      5-min Rain = 0
KHA1 150705Z 32011KT 05/02 A3013 RMK A01 T00490018  RH  082%=      5-min Rain = 0
KHA1 150710Z 31011KT 05/02 A3013 RMK A01 T00480017  RH  082%=      5-min Rain = 0
KHA1 150715Z 31012KT 05/02 A3014 RMK A01 T00480016  RH  081%=      5-min Rain = 0
KHA1 150720Z 32011KT 05/02 A3014 RMK A01 T00470015  RH  081%=      5-min Rain = 0
KHA1 150725Z 32011KT 05/02 A3013 RMK A01 T00460015  RH  082%=      5-min Rain = 0
KHA1 150730Z 32011KT 05/02 A3014 RMK A01 T00450015  RH  082%=      5-min Rain = 0
KHA1 150735Z 32011KT 04/01 A3014 RMK A01 T00440014  RH  082%=      5-min Rain = 0
KHA1 150740Z 32011KT 04/01 A3014 RMK A01 T00430014  RH  082%=      5-min Rain = 0
KHA1 150745Z 32010KT 04/01 A3014 RMK A01 T00430013  RH  082%=      5-min Rain = 0
KHA1 150750Z 32010KT 04/01 A3014 RMK A01 T00420013  RH  082%=      5-min Rain = 0
KHA1 150755Z 32010KT 04/01 A3014 RMK A01 T00410013  RH  083%=      5-min Rain = 0
KHA1 150800Z 32009KT 04/01 A3014 RMK A01 T00400012  RH  083%=      5-min Rain = 0
KHA1 150805Z 32010KT 04/01 A3014 RMK A01 T00400011  RH  083%=      5-min Rain = 0
KHA1 150810Z 32010KT 04/01 A3014 RMK A01 T00400011  RH  082%=      5-min Rain = 0
KHA1 150815Z 32010KT 04/01 A3014 RMK A01 T00400010  RH  082%=      5-min Rain = 0
KHA1 150820Z 32010KT 04/01 A3014 RMK A01 T00390010  RH  082%=      5-min Rain = 0
KHA1 150825Z 32010KT 04/01 A3014 RMK A01 T00380010  RH  083%=      5-min Rain = 0
KHA1 150830Z 32010KT 04/01 A3014 RMK A01 T00380009  RH  083%=      5-min Rain = 0
KHA1 150835Z 32010KT 04/01 A3014 RMK A01 T00380009  RH  082%=      5-min Rain = 0
KHA1 150840Z 32010KT 04/01 A3014 RMK A01 T00370008  RH  082%=      5-min Rain = 0
KHA1 150845Z 32010KT 04/01 A3014 RMK A01 T00360008  RH  083%=      5-min Rain = 0
KHA1 150850Z 32010KT 04/01 A3014 RMK A01 T00360007  RH  083%=      5-min Rain = 0
KHA1 150855Z 32010KT 04/01 A3015 RMK A01 T00360007  RH  082%=      5-min Rain = 0
KHA1 150900Z 32010KT 04/01 A3015 RMK A01 T00350006  RH  082%=      5-min Rain = 0
KHA1 150905Z 32010KT 04/01 A3015 RMK A01 T00350006  RH  082%=      5-min Rain = 0
KHA1 150910Z 32010KT 03/01 A3015 RMK A01 T00340006  RH  083%=      5-min Rain = 0
KHA1 150915Z 32010KT 03/01 A3014 RMK A01 T00320006  RH  084%=      5-min Rain = 0
KHA1 150920Z 32010KT 03/01 A3014 RMK A01 T00330005  RH  083%=      5-min Rain = 0
KHA1 150925Z 32010KT 03/00 A3014 RMK A01 T00330004  RH  082%=      5-min Rain = 0
KHA1 150930Z 33010KT 03/00 A3014 RMK A01 T00320003  RH  082%=      5-min Rain = 0
KHA1 150935Z 33009KT 03/00 A3014 RMK A01 T00320003  RH  083%=      5-min Rain = 0
KHA1 150940Z 33010KT 03/00 A3014 RMK A01 T00310003  RH  082%=      5-min Rain = 0
KHA1 150945Z 33009KT 03/00 A3014 RMK A01 T00310003  RH  083%=      5-min Rain = 0
KHA1 150950Z 33009KT 03/00 A3014 RMK A01 T00300002  RH  083%=      5-min Rain = 0
KHA1 150955Z 32009KT 03/00 A3014 RMK A01 T00300002  RH  083%=      5-min Rain = 0
KHA1 151000Z 32008KT 03/00 A3014 RMK A01 T00290002  RH  083%=      5-min Rain = 0
KHA1 151005Z 32009KT 03/00 A3014 RMK A01 T00280002  RH  083%=      5-min Rain = 0
KHA1 151010Z 32009KT 03/00 A3014 RMK A01 T00280001  RH  083%=      5-min Rain = 0
KHA1 151015Z 32009KT 03/00 A3014 RMK A01 T00270001  RH  084%=      5-min Rain = 0
KHA1 151020Z 32008KT 03/00 A3014 RMK A01 T00280001  RH  084%=      5-min Rain = 0
KHA1 151025Z 33008KT 03/00 A3014 RMK A01 T00270001  RH  084%=      5-min Rain = 0
KHA1 151030Z 33008KT 03/00 A3014 RMK A01 T00270000  RH  084%=      5-min Rain = 0
KHA1 151035Z 33008KT 03/00 A3015 RMK A01 T00260000  RH  084%=      5-min Rain = 0
KHA1 151040Z 33007KT 02/00 A3015 RMK A01 T00240000  RH  085%=      5-min Rain = 0
KHA1 151045Z 33007KT 02/00 A3015 RMK A01 T00230001  RH  086%=      5-min Rain = 0
KHA1 151050Z 33007KT 02/00 A3015 RMK A01 T00220001  RH  087%=      5-min Rain = 0
KHA1 151055Z 33007KT 02/00 A3015 RMK A01 T00230000  RH  086%=      5-min Rain = 0
KHA1 151100Z 33007KT 02/00 A3015 RMK A01 T002300-0  RH  086%=      5-min Rain = 0
KHA1 151105Z 33007KT 02/00 A3015 RMK A01 T002300-0  RH  086%=      5-min Rain = 0
KHA1 151110Z 33008KT 02/00 A3015 RMK A01 T002300-0  RH  086%=      5-min Rain = 0
KHA1 151115Z 33009KT 02/M00 A3015 RMK A01 T00241001  RH  085%=      5-min Rain = 0
KHA1 151120Z 33009KT 03/M00 A3015 RMK A01 T00251002  RH  083%=      5-min Rain = 0
KHA1 151125Z 33009KT 02/M00 A3015 RMK A01 T00241002  RH  084%=      5-min Rain = 0
KHA1 151130Z 33008KT 02/M00 A3015 RMK A01 T00221001  RH  085%=      5-min Rain = 0
KHA1 151135Z 33008KT 02/M00 A3015 RMK A01 T00211001  RH  086%=      5-min Rain = 0
KHA1 151140Z 33008KT 02/M00 A3015 RMK A01 T00201001  RH  087%=      5-min Rain = 0
KHA1 151145Z 33008KT 02/M00 A3016 RMK A01 T00191001  RH  087%=      5-min Rain = 0
KHA1 151150Z 33009KT 02/M00 A3016 RMK A01 T00191001  RH  087%=      5-min Rain = 0
KHA1 151155Z 33010KT 02/M00 A3016 RMK A01 T00201002  RH  086%=      5-min Rain = 0
KHA1 151200Z 33009KT 02/M00 A3016 RMK A01 T00191002  RH  087%=      5-min Rain = 0
KHA1 151205Z 33008KT 02/M00 A3016 RMK A01 T00191002  RH  087%=      5-min Rain = 0
KHA1 151210Z 33009KT 02/M00 A3016 RMK A01 T00181002  RH  088%=      5-min Rain = 0
KHA1 151215Z 33009KT 02/M00 A3016 RMK A01 T00171002  RH  088%=      5-min Rain = 0
KHA1 151220Z 33009KT 02/M00 A3017 RMK A01 T00161002  RH  089%=      5-min Rain = 0
KHA1 151225Z 33009KT 02/M00 A3017 RMK A01 T00151002  RH  089%=      5-min Rain = 0
KHA1 151230Z 33009KT 02/M00 A3017 RMK A01 T00151002  RH  089%=      5-min Rain = 0
KHA1 151235Z 33010KT 02/M00 A3017 RMK A01 T00161003  RH  088%=      5-min Rain = 0
KHA1 151240Z 33010KT 02/M00 A3017 RMK A01 T00161003  RH  088%=      5-min Rain = 0
KHA1 151245Z 33009KT 02/M00 A3017 RMK A01 T00161004  RH  088%=      5-min Rain = 0
KHA1 151250Z 33009KT 02/M00 A3017 RMK A01 T00161004  RH  088%=      5-min Rain = 0
KHA1 151255Z 33009KT 02/M00 A3017 RMK A01 T00161004  RH  088%=      5-min Rain = 0
KHA1 151300Z 33010KT 02/M01 A3017 RMK A01 T00151005  RH  087%=      5-min Rain = 0
KHA1 151305Z 33009KT 02/M01 A3017 RMK A01 T00151005  RH  087%=      5-min Rain = 0
KHA1 151310Z 33009KT 01/M01 A3018 RMK A01 T00141005  RH  088%=      5-min Rain = 0
KHA1 151315Z 33009KT 01/M01 A3018 RMK A01 T00131006  RH  088%=      5-min Rain = 0
KHA1 151320Z 33009KT 01/M01 A3018 RMK A01 T00131006  RH  089%=      5-min Rain = 0
KHA1 151325Z 33009KT 01/M01 A3018 RMK A01 T00121006  RH  089%=      5-min Rain = 0
KHA1 151330Z 31007KT 01/M01 A3019 RMK A01 T00121006  RH  089%=      5-min Rain = 0
KHA1 151335Z 33010KT 01/M01 A3019 RMK A01 T00121005  RH  089%=      5-min Rain = 0
KHA1 151340Z 34010KT 01/M01 A302 RMK A01 T00131005  RH  089%=      5-min Rain = 0
KHA1 151345Z 34010KT 01/M01 A302 RMK A01 T00141005  RH  088%=      5-min Rain = 0
KHA1 151350Z 34010KT 02/M01 A302 RMK A01 T00161005  RH  087%=      5-min Rain = 0
KHA1 151355Z 34010KT 02/M01 A3021 RMK A01 T00181005  RH  086%=      5-min Rain = 0
KHA1 151400Z 33009KT 02/M00 A3021 RMK A01 T00191004  RH  086%=      5-min Rain = 0
KHA1 151405Z 34009KT 02/M00 A3021 RMK A01 T00201003  RH  086%=      5-min Rain = 0
KHA1 151410Z 34009KT 02/M00 A3021 RMK A01 T00211002  RH  085%=      5-min Rain = 0
KHA1 151415Z 34009KT 02/M00 A3022 RMK A01 T00231001  RH  085%=      5-min Rain = 0
KHA1 151420Z 34008KT 03/00 A3022 RMK A01 T00250000  RH  085%=      5-min Rain = 0
KHA1 151425Z 34008KT 03/00 A3022 RMK A01 T00260001  RH  084%=      5-min Rain = 0
KHA1 151430Z 34008KT 03/00 A3022 RMK A01 T00280002  RH  084%=      5-min Rain = 0
KHA1 151435Z 34009KT 03/00 A3023 RMK A01 T00300002  RH  083%=      5-min Rain = 0
KHA1 151440Z 34010KT 03/00 A3023 RMK A01 T00310001  RH  081%=      5-min Rain = 0
KHA1 151445Z 34010KT 03/00 A3023 RMK A01 T00340002  RH  081%=      5-min Rain = 0
KHA1 151450Z 34011KT 04/00 A3023 RMK A01 T00350001  RH  079%=      5-min Rain = 0
KHA1 151455Z 34011KT 04/01 A3024 RMK A01 T00380005  RH  080%=      5-min Rain = 0
KHA1 151500Z 34012KT 04/00 A3024 RMK A01 T00390002  RH  078%=      5-min Rain = 0
KHA1 151505Z 34013KT 04/00 A3024 RMK A01 T00410002  RH  077%=      5-min Rain = 0
KHA1 151510Z 35012KT 04/01 A3025 RMK A01 T00430006  RH  077%=      5-min Rain = 0
KHA1 151515Z 35012KT 05/01 A3025 RMK A01 T00450005  RH  076%=      5-min Rain = 0
KHA1 151520Z 35011G16KT 05/01 A3025 RMK A01 T00470007  RH  076%=      5-min Rain = 0
KHA1 151525Z 35011KT 05/01 A3025 RMK A01 T00490005  RH  074%=      5-min Rain = 0
KHA1 151530Z 35011KT 05/01 A3025 RMK A01 T00510008  RH  075%=      5-min Rain = 0
KHA1 151535Z 35011KT 05/01 A3025 RMK A01 T00530009  RH  074%=      5-min Rain = 0
KHA1 151540Z 35012KT 05/01 A3025 RMK A01 T00540008  RH  073%=      5-min Rain = 0
KHA1 151545Z 35011KT 06/01 A3026 RMK A01 T00570011  RH  073%=      5-min Rain = 0
KHA1 151550Z 36012KT 06/01 A3026 RMK A01 T00590008  RH  071%=      5-min Rain = 0
KHA1 151555Z 36012KT 06/01 A3026 RMK A01 T00600009  RH  070%=      5-min Rain = 0
KHA1 151600Z 36010KT 06/01 A3026 RMK A01 T00620011  RH  071%=      5-min Rain = 0
KHA1 151605Z 00011KT 06/01 A3026 RMK A01 T00640013  RH  071%=      5-min Rain = 0
KHA1 151610Z 36011KT 06/01 A3026 RMK A01 T00640011  RH  070%=      5-min Rain = 0
KHA1 151615Z 00010G15KT 07/01 A3026 RMK A01 T00660014  RH  070%=      5-min Rain = 0
KHA1 151620Z 36010KT 07/02 A3026 RMK A01 T00680015  RH  070%=      5-min Rain = 0
KHA1 151625Z 00009KT 07/02 A3027 RMK A01 T00700019  RH  071%=      5-min Rain = 0
KHA1 151630Z 00010KT 07/01 A3026 RMK A01 T00690014  RH  069%=      5-min Rain = 0
KHA1 151635Z 01011KT 07/01 A3026 RMK A01 T00700012  RH  067%=      5-min Rain = 0
KHA1 151640Z 00010KT 07/01 A3026 RMK A01 T00700013  RH  068%=      5-min Rain = 0
KHA1 151645Z 00009KT 07/02 A3027 RMK A01 T00720015  RH  068%=      5-min Rain = 0
KHA1 151650Z 01009KT 07/01 A3027 RMK A01 T00740014  RH  067%=      5-min Rain = 0
KHA1 151655Z 00008KT 07/01 A3027 RMK A01 T00730014  RH  067%=      5-min Rain = 0
KHA1 151700Z 01009KT 08/02 A3027 RMK A01 T00750017  RH  067%=      5-min Rain = 0
KHA1 151705Z 35010KT 08/02 A3027 RMK A01 T00770017  RH  067%=      5-min Rain = 0
KHA1 151710Z 01009KT 08/02 A3027 RMK A01 T00770015  RH  066%=      5-min Rain = 0
KHA1 151715Z 35009KT 08/03 A3027 RMK A01 T00820026  RH  069%=      5-min Rain = 0
KHA1 151720Z 35008KT 08/02 A3027 RMK A01 T00810019  RH  066%=      5-min Rain = 0
KHA1 151725Z 35008KT 08/02 A3027 RMK A01 T00830023  RH  067%=      5-min Rain = 0
KHA1 151730Z 35008G13KT 08/02 A3027 RMK A01 T00820015  RH  064%=      5-min Rain = 0
KHA1 151735Z 35009KT 08/02 A3027 RMK A01 T00830020  RH  066%=      5-min Rain = 0
KHA1 151740Z 34008KT 09/02 A3026 RMK A01 T00850022  RH  066%=      5-min Rain = 0
KHA1 151745Z 35010KT 09/01 A3026 RMK A01 T00850014  RH  062%=      5-min Rain = 0
KHA1 151750Z 35010KT 09/02 A3026 RMK A01 T00860016  RH  062%=      5-min Rain = 0
KHA1 151755Z 34010KT 09/02 A3026 RMK A01 T00880017  RH  062%=      5-min Rain = 0
KHA1 151800Z 35009KT 09/02 A3026 RMK A01 T00900018  RH  062%=      5-min Rain = 0
KHA1 151805Z 35009KT 09/02 A3026 RMK A01 T00900016  RH  061%=      5-min Rain = 0
KHA1 151810Z 34010KT 09/02 A3026 RMK A01 T00920020  RH  061%=      5-min Rain = 0
KHA1 151815Z 34010KT 09/02 A3026 RMK A01 T00930023  RH  063%=      5-min Rain = 0
KHA1 151820Z 35009KT 09/02 A3026 RMK A01 T00940021  RH  061%=      5-min Rain = 0
KHA1 151825Z 35010KT 09/02 A3025 RMK A01 T00940018  RH  060%=      5-min Rain = 0
KHA1 151830Z 36011KT 09/02 A3025 RMK A01 T00940018  RH  060%=      5-min Rain = 0
KHA1 151835Z 35010KT 10/02 A3025 RMK A01 T00970020  RH  060%=      5-min Rain = 0
KHA1 151840Z 01008KT 10/02 A3025 RMK A01 T00950015  RH  058%=      5-min Rain = 0
KHA1 151845Z 36012KT 10/02 A3025 RMK A01 T00990022  RH  060%=      5-min Rain = 0
KHA1 151850Z 35010G15KT 10/01 A3025 RMK A01 T00980013  RH  056%=      5-min Rain = 0
KHA1 151855Z 36012KT 10/02 A3024 RMK A01 T00980016  RH  057%=      5-min Rain = 0
KHA1 151900Z 35011KT 10/02 A3024 RMK A01 T00980015  RH  057%=      5-min Rain = 0
KHA1 151905Z 00010KT 10/01 A3024 RMK A01 T00980011  RH  055%=      5-min Rain = 0
KHA1 151910Z 35010KT 10/01 A3023 RMK A01 T00990014  RH  056%=      5-min Rain = 0
KHA1 151915Z 33010G16KT 10/02 A3023 RMK A01 T01000015  RH  057%=      5-min Rain = 0
KHA1 151920Z 34009KT 10/02 A3023 RMK A01 T01010019  RH  058%=      5-min Rain = 0
KHA1 151925Z 35011KT 10/02 A3023 RMK A01 T01020020  RH  058%=      5-min Rain = 0
KHA1 151930Z 34010G15KT 10/02 A3022 RMK A01 T01030021  RH  058%=      5-min Rain = 0
KHA1 151935Z 01011KT 10/01 A3022 RMK A01 T01020014  RH  055%=      5-min Rain = 0
KHA1 151940Z 00010KT 10/01 A3022 RMK A01 T01020007  RH  052%=      5-min Rain = 0
KHA1 151945Z 36009KT 10/01 A3022 RMK A01 T01020010  RH  054%=      5-min Rain = 0
KHA1 151950Z 00011KT 10/02 A3021 RMK A01 T01040017  RH  056%=      5-min Rain = 0
KHA1 151955Z 34009KT 10/02 A3021 RMK A01 T01040019  RH  056%=      5-min Rain = 0
KHA1 152000Z 00009KT 11/02 A3021 RMK A01 T01060018  RH  055%=      5-min Rain = 0
KHA1 152005Z 35009KT 11/01 A3021 RMK A01 T01060013  RH  053%=      5-min Rain = 0
KHA1 152010Z 35010G15KT 11/02 A3021 RMK A01 T01080020  RH  056%=      5-min Rain = 0
KHA1 152015Z 36010G15KT 11/01 A3021 RMK A01 T01080010  RH  052%=      5-min Rain = 0
KHA1 152020Z 36011KT 11/00 A302 RMK A01 T01080003  RH  049%=      5-min Rain = 0
KHA1 152025Z 35010KT 11/01 A302 RMK A01 T01090012  RH  052%=      5-min Rain = 0
KHA1 152030Z 36010G15KT 11/00 A302 RMK A01 T01090004  RH  049%=      5-min Rain = 0
KHA1 152035Z 01009G16KT 11/01 A302 RMK A01 T01100010  RH  051%=      5-min Rain = 0
KHA1 152040Z 36010G17KT 11/00 A302 RMK A01 T01090003  RH  049%=      5-min Rain = 0
KHA1 152045Z 34008KT 11/01 A3019 RMK A01 T01100013  RH  052%=      5-min Rain = 0
KHA1 152050Z 36010KT 11/00 A3019 RMK A01 T01120004  RH  048%=      5-min Rain = 0
KHA1 152055Z 35010KT 11/01 A3019 RMK A01 T01120008  RH  049%=      5-min Rain = 0
KHA1 152100Z 35009KT 11/00 A3019 RMK A01 T01100002  RH  048%=      5-min Rain = 0
KHA1 152105Z 01007KT 11/00 A3019 RMK A01 T01120000  RH  047%=      5-min Rain = 0
KHA1 152110Z 01007KT 11/00 A3018 RMK A01 T01130004  RH  048%=      5-min Rain = 0
KHA1 152115Z 02009KT 11/00 A3018 RMK A01 T01130004  RH  047%=      5-min Rain = 0
KHA1 152120Z 01008KT 11/01 A3018 RMK A01 T01130009  RH  049%=      5-min Rain = 0
KHA1 152125Z 00008KT 11/00 A3018 RMK A01 T01140002  RH  047%=      5-min Rain = 0
KHA1 152130Z 36007KT 11/M00 A3018 RMK A01 T01131004  RH  045%=      5-min Rain = 0
KHA1 152135Z 35007KT 12/00 A3017 RMK A01 T01150004  RH  047%=      5-min Rain = 0
KHA1 152140Z 36006KT 11/M00 A3017 RMK A01 T01141003  RH  045%=      5-min Rain = 0
KHA1 152145Z 35010KT 12/01 A3017 RMK A01 T01150006  RH  048%=      5-min Rain = 0
KHA1 152150Z 01009KT 12/00 A3017 RMK A01 T01150004  RH  047%=      5-min Rain = 0
KHA1 152155Z 36007G12KT 12/00 A3017 RMK A01 T01150002  RH  046%=      5-min Rain = 0
KHA1 152200Z 02006KT 12/00 A3017 RMK A01 T01160003  RH  046%=      5-min Rain = 0
KHA1 152205Z 01007KT 12/00 A3017 RMK A01 T01160002  RH  046%=      5-min Rain = 0
KHA1 152210Z 00006KT 12/M01 A3016 RMK A01 T01151007  RH  043%=      5-min Rain = 0
KHA1 152215Z 00007KT 12/00 A3016 RMK A01 T01160001  RH  046%=      5-min Rain = 0
KHA1 152220Z 35008KT 12/01 A3016 RMK A01 T01160008  RH  048%=      5-min Rain = 0
KHA1 152225Z 35006KT 12/M00 A3016 RMK A01 T01171001  RH  045%=      5-min Rain = 0
KHA1 152230Z 35005KT 12/M00 A3016 RMK A01 T01171001  RH  045%=      5-min Rain = 0
KHA1 152235Z 35003KT 12/M01 A3016 RMK A01 T01181012  RH  041%=      5-min Rain = 0
KHA1 152240Z 33003KT 12/M00 A3016 RMK A01 T01191003  RH  044%=      5-min Rain = 0
KHA1 152245Z 34003G8KT 12/M01 A3015 RMK A01 T01201010  RH  041%=      5-min Rain = 0
KHA1 152250Z 36006KT 12/M00 A3015 RMK A01 T01181002  RH  044%=      5-min Rain = 0
KHA1 152255Z 02006KT 12/M00 A3015 RMK A01 T01171001  RH  045%=      5-min Rain = 0
KHA1 152300Z 02004KT 12/00 A3015 RMK A01 T01180004  RH  046%=      5-min Rain = 0
KHA1 152305Z 03004KT 12/M01 A3015 RMK A01 T01171008  RH  042%=      5-min Rain = 0
KHA1 152310Z 03004KT 12/M00 A3015 RMK A01 T01181002  RH  044%=      5-min Rain = 0
KHA1 152315Z 04003KT 12/M01 A3015 RMK A01 T01171005  RH  043%=      5-min Rain = 0
KHA1 152320Z 04004KT 12/00 A3015 RMK A01 T01170003  RH  046%=      5-min Rain = 0
KHA1 152325Z 02003KT 12/00 A3015 RMK A01 T01170000  RH  045%=      5-min Rain = 0
KHA1 152330Z 03003KT 12/M00 A3015 RMK A01 T01171004  RH  044%=      5-min Rain = 0
KHA1 152335Z 01004KT 12/01 A3015 RMK A01 T01160005  RH  047%=      5-min Rain = 0
KHA1 152340Z 36004KT 12/00 A3015 RMK A01 T01150000  RH  046%=      5-min Rain = 0
KHA1 152345Z 01004KT 12/M00 A3015 RMK A01 T01151003  RH  045%=      5-min Rain = 0
KHA1 152350Z 01003KT 12/00 A3015 RMK A01 T01150004  RH  047%=      5-min Rain = 0
KHA1 152355Z 04004KT 11/01 A3015 RMK A01 T01130007  RH  049%=      5-min Rain = 0
KHA1 160000Z 04003KT 11/02 A3015 RMK A01 T01110015  RH  052%=      5-min Rain = 0
KHA1 160005Z 05003KT 11/01 A3015 RMK A01 T01090012  RH  052%=      5-min Rain = 0
KHA1 160010Z 05002KT 11/01 A3015 RMK A01 T01080013  RH  053%=      5-min Rain = 0
KHA1 160015Z 07002KT 11/01 A3015 RMK A01 T01080006  RH  050%=      5-min Rain = 0
KHA1 160020Z 08002KT 11/01 A3015 RMK A01 T01050012  RH  053%=      5-min Rain = 0
KHA1 160025Z 09002KT 10/01 A3015 RMK A01 T01010006  RH  052%=      5-min Rain = 0
KHA1 160030Z 11002KT 10/M00 A3015 RMK A01 T00991003  RH  050%=      5-min Rain = 0
KHA1 160035Z 09002KT 10/M01 A3015 RMK A01 T00971011  RH  047%=      5-min Rain = 0
KHA1 160040Z 09003KT 10/M01 A3015 RMK A01 T00981012  RH  047%=      5-min Rain = 0
KHA1 160045Z 08003KT 10/M01 A3015 RMK A01 T00971014  RH  046%=      5-min Rain = 0
KHA1 160050Z 09002KT 09/00 A3015 RMK A01 T00930001  RH  053%=      5-min Rain = 0
KHA1 160055Z 11003KT 09/M01 A3015 RMK A01 T00901008  RH  050%=      5-min Rain = 0
KHA1 160100Z 13003KT 09/M01 A3015 RMK A01 T00911008  RH  051%=      5-min Rain = 0
KHA1 160105Z 14004KT 09/M01 A3015 RMK A01 T00911007  RH  051%=      5-min Rain = 0
KHA1 160110Z 14004KT 09/M01 A3015 RMK A01 T00931010  RH  049%=      5-min Rain = 0
KHA1 160115Z 14004KT 09/M01 A3015 RMK A01 T00931012  RH  048%=      5-min Rain = 0
KHA1 160120Z 15004KT 09/M01 A3015 RMK A01 T00921010  RH  050%=      5-min Rain = 0
KHA1 160125Z 15004KT 09/M01 A3015 RMK A01 T00871008  RH  052%=      5-min Rain = 0
KHA1 160130Z 14004KT 09/M01 A3015 RMK A01 T00861009  RH  052%=      5-min Rain = 0
KHA1 160135Z 14004KT 08/M01 A3015 RMK A01 T00831008  RH  053%=      5-min Rain = 0
KHA1 160140Z 13004KT 08/M01 A3015 RMK A01 T00811007  RH  054%=      5-min Rain = 0
KHA1 160145Z 12004KT 08/M01 A3015 RMK A01 T00801006  RH  055%=      5-min Rain = 0
KHA1 160150Z 12004KT 08/M01 A3015 RMK A01 T00791007  RH  055%=      5-min Rain = 0
KHA1 160155Z 11004KT 08/M01 A3014 RMK A01 T00771008  RH  056%=      5-min Rain = 0
KHA1 160200Z 10004KT 08/M00 A3014 RMK A01 T00751004  RH  058%=      5-min Rain = 0
KHA1 160205Z 10004KT 07/M01 A3014 RMK A01 T00731005  RH  058%=      5-min Rain = 0
KHA1 160210Z 11004KT 07/M00 A3014 RMK A01 T00721002  RH  060%=      5-min Rain = 0
KHA1 160215Z 12004KT 07/M01 A3014 RMK A01 T00721006  RH  058%=      5-min Rain = 0
KHA1 160220Z 12004KT 07/M01 A3014 RMK A01 T00731008  RH  057%=      5-min Rain = 0
KHA1 160225Z 12004KT 07/M01 A3014 RMK A01 T00731010  RH  056%=      5-min Rain = 0
KHA1 160230Z 12004KT 07/M01 A3014 RMK A01 T00721009  RH  057%=      5-min Rain = 0
KHA1 160235Z 11004KT 07/M01 A3014 RMK A01 T00721013  RH  055%=      5-min Rain = 0
KHA1 160240Z 11005KT 07/M01 A3014 RMK A01 T00731014  RH  054%=      5-min Rain = 0
KHA1 160245Z 11005KT 07/M01 A3014 RMK A01 T00731014  RH  054%=      5-min Rain = 0
KHA1 160250Z 10005KT 07/M02 A3014 RMK A01 T00731016  RH  054%=      5-min Rain = 0
KHA1 160255Z 11004KT 07/M02 A3014 RMK A01 T00721015  RH  054%=      5-min Rain = 0
KHA1 160300Z 11004KT 07/M02 A3014 RMK A01 T00711015  RH  055%=      5-min Rain = 0
KHA1 160305Z 12005KT 07/M02 A3015 RMK A01 T00711017  RH  054%=      5-min Rain = 0
KHA1 160310Z 11004KT 07/M02 A3015 RMK A01 T00711019  RH  053%=      5-min Rain = 0
KHA1 160315Z 14004KT 07/M02 A3015 RMK A01 T00701015  RH  055%=      5-min Rain = 0
KHA1 160320Z 16004KT 06/M00 A3015 RMK A01 T00571002  RH  067%=      5-min Rain = 0
KHA1 160325Z 16005KT 06/M01 A3015 RMK A01 T00571006  RH  065%=      5-min Rain = 0
KHA1 160330Z 16005KT 06/M01 A3015 RMK A01 T00591008  RH  063%=      5-min Rain = 0
KHA1 160335Z 16004KT 06/M01 A3015 RMK A01 T00611010  RH  061%=      5-min Rain = 0
KHA1 160340Z 17004KT 05/M01 A3015 RMK A01 T00541012  RH  063%=      5-min Rain = 0
KHA1 160345Z 18005KT 05/M01 A3016 RMK A01 T00531011  RH  064%=      5-min Rain = 0
KHA1 160350Z 18005KT 05/M01 A3015 RMK A01 T00501011  RH  065%=      5-min Rain = 0
KHA1 160355Z 18005KT 05/M01 A3015 RMK A01 T00511007  RH  067%=      5-min Rain = 0
KHA1 160400Z 17005KT 05/M01 A3015 RMK A01 T00541006  RH  066%=      5-min Rain = 0
KHA1 160405Z 17005KT 06/M01 A3015 RMK A01 T00571005  RH  065%=      5-min Rain = 0
KHA1 160410Z 17004KT 06/M01 A3015 RMK A01 T00581005  RH  065%=      5-min Rain = 0
KHA1 160415Z 17004KT 06/M01 A3015 RMK A01 T00581007  RH  064%=      5-min Rain = 0
KHA1 160420Z 18005KT 06/M01 A3015 RMK A01 T00561006  RH  065%=      5-min Rain = 0
KHA1 160425Z 18005KT 05/M00 A3015 RMK A01 T00531004  RH  067%=      5-min Rain = 0
KHA1 160430Z 18005KT 05/M00 A3015 RMK A01 T00501004  RH  069%=      5-min Rain = 0
KHA1 160435Z 18005KT 05/M00 A3015 RMK A01 T00491004  RH  069%=      5-min Rain = 0
KHA1 160440Z 18005KT 05/M00 A3015 RMK A01 T00481004  RH  070%=      5-min Rain = 0
KHA1 160445Z 18005KT 05/M00 A3015 RMK A01 T00471004  RH  070%=      5-min Rain = 0
KHA1 160450Z 18004KT 05/M01 A3015 RMK A01 T00491005  RH  069%=      5-min Rain = 0
KHA1 160455Z 18004KT 05/M00 A3015 RMK A01 T00481004  RH  070%=      5-min Rain = 0
KHA1 160500Z 18005KT 05/M00 A3015 RMK A01 T00481004  RH  070%=      5-min Rain = 0
KHA1 160505Z 19005KT 05/M00 A3014 RMK A01 T00461003  RH  071%=      5-min Rain = 0
KHA1 160510Z 19005KT 04/M00 A3014 RMK A01 T00431003  RH  073%=      5-min Rain = 0
KHA1 160515Z 18005KT 04/M01 A3014 RMK A01 T00441005  RH  071%=      5-min Rain = 0
KHA1 160520Z 18004KT 04/M01 A3014 RMK A01 T00441005  RH  071%=      5-min Rain = 0
KHA1 160525Z 18005KT 05/M01 A3014 RMK A01 T00451006  RH  070%=      5-min Rain = 0
KHA1 160530Z 18005KT 05/M01 A3014 RMK A01 T00461006  RH  070%=      5-min Rain = 0
KHA1 160535Z 18004KT 05/M01 A3014 RMK A01 T00451006  RH  070%=      5-min Rain = 0
KHA1 160540Z 18005KT 05/M01 A3014 RMK A01 T00451005  RH  071%=      5-min Rain = 0
KHA1 160545Z 19006KT 04/M00 A3014 RMK A01 T00431004  RH  073%=      5-min Rain = 0
KHA1 160550Z 19006KT 04/M00 A3014 RMK A01 T00421004  RH  073%=      5-min Rain = 0
KHA1 160555Z 18006KT 04/M00 A3014 RMK A01 T00411004  RH  073%=      5-min Rain = 0

Page generated in 0.0514 seconds.